Time;durP1;ratioP1;P1;durP2;ratioP2;P2;SDS_P1;SDS_P2;PMS_P1;PMS_P2;Temp;Humidity;BMP_temperature;BMP_pressure;BME280_temperature;BME280_humidity;BME280_pressure;Samples;Min_cycle;Max_cycle;Signal;HPM_P1;HPM_P2
2024/01/08 00:00:03;;;;;;;15.35;13.75;;;;;;;;;;428281;23;789;-88
2024/01/08 00:00:15;;;;;;;15.20;13.65;;;;;;;;;;425739;23;1364;-87
2024/01/08 00:00:27;;;;;;;15.05;13.55;;;;;;;;;;425995;23;1240;-87
2024/01/08 00:00:37;;;;;;;14.17;12.77;;;;;;;;;;427446;23;1234;-88
2024/01/08 00:00:48;;;;;;;14.50;13.10;;;;;;;;;;427643;23;1023;-85
2024/01/08 00:00:58;;;;;;;14.33;12.90;;;;;;;;;;427379;23;830;-86
2024/01/08 00:01:14;;;;;;;14.13;12.68;;;;;;;;;;425568;23;1411;-86
2024/01/08 00:01:25;;;;;;;13.40;11.98;;;;;;;;;;425515;23;1000;-86
2024/01/08 00:01:35;;;;;;;13.70;12.20;;;;;;;;;;427613;23;1131;-86
2024/01/08 00:01:50;;;;;;;15.63;12.65;;;;;;;;;;427728;23;1071;-87
2024/01/08 00:02:00;;;;;;;16.20;13.00;;;;;;;;;;427310;23;1326;-86
2024/01/08 00:02:11;;;;;;;15.50;12.55;;;;;;;;;;427326;23;1091;-86
2024/01/08 00:02:21;;;;;;;13.80;12.37;;;;;;;;;;425330;23;1001;-86
2024/01/08 00:02:32;;;;;;;13.68;12.25;;;;;;;;;;425311;23;1288;-86
2024/01/08 00:02:42;;;;;;;14.03;12.60;;;;;;;;;;427579;23;1129;-86
2024/01/08 00:02:53;;;;;;;14.40;12.90;;;;;;;;;;429493;23;1140;-86
2024/01/08 00:03:03;;;;;;;14.27;12.77;;;;;;;;;;426708;23;873;-87
2024/01/08 00:03:14;;;;;;;14.80;12.88;;;;;;;;;;427152;23;1204;-86
2024/01/08 00:03:24;;;;;;;14.27;12.73;;;;;;;;;;426734;23;1184;-86
2024/01/08 00:03:38;;;;;;;14.27;12.70;;;;;;;;;;427738;23;1056;-87
2024/01/08 00:03:48;;;;;;;14.00;12.50;;;;;;;;;;427622;23;909;-86
2024/01/08 00:03:59;;;;;;;14.00;12.50;;;;;;;;;;427026;23;1408;-86
2024/01/08 00:04:09;;;;;;;14.60;13.02;;;;;;;;;;425435;23;845;-86
2024/01/08 00:04:20;;;;;;;14.97;13.37;;;;;;;;;;427037;23;791;-87
2024/01/08 00:04:30;;;;;;;15.00;13.38;;;;;;;;;;425213;23;1927;-87
2024/01/08 00:04:41;;;;;;;14.10;12.60;;;;;;;;;;427278;23;1121;-87
2024/01/08 00:04:51;;;;;;;13.63;12.23;;;;;;;;;;425395;23;969;-86
2024/01/08 00:05:02;;;;;;;13.83;12.43;;;;;;;;;;427657;23;877;-87
2024/01/08 00:05:12;;;;;;;14.13;12.65;;;;;;;;;;427351;23;1048;-87
2024/01/08 00:05:23;;;;;;;14.57;13.07;;;;;;;;;;428466;23;1395;-87
2024/01/08 00:05:38;;;;;;;14.20;12.70;;;;;;;;;;426052;23;1312;-87
2024/01/08 00:05:48;;;;;;;14.43;12.43;;;;;;;;;;427964;23;905;-87
2024/01/08 00:05:59;;;;;;;14.75;12.30;;;;;;;;;;428181;23;846;-86
2024/01/08 00:06:09;;;;;;;13.70;12.17;;;;;;;;;;428116;23;1163;-86
2024/01/08 00:06:20;;;;;;;13.50;12.10;;;;;;;;;;423570;23;1211;-85
2024/01/08 00:06:30;;;;;;;14.07;12.63;;;;;;;;;;423911;23;885;-87
2024/01/08 00:06:41;;;;;;;14.13;12.63;;;;;;;;;;426127;23;1196;-87
2024/01/08 00:06:51;;;;;;;13.77;12.37;;;;;;;;;;423924;23;846;-87
2024/01/08 00:07:02;;;;;;;13.40;12.10;;;;;;;;;;424047;23;908;-86
2024/01/08 00:07:13;;;;;;;13.68;12.38;;;;;;;;;;425754;23;1237;-86
2024/01/08 00:07:25;;;;;;;13.60;12.30;;;;;;;;;;423919;23;775;-87
2024/01/08 00:07:35;;;;;;;13.48;12.15;;;;;;;;;;426019;23;1335;-86
2024/01/08 00:07:46;;;;;;;13.55;12.15;;;;;;;;;;423944;23;1244;-87
2024/01/08 00:07:56;;;;;;;13.82;12.43;;;;;;;;;;427869;23;1465;-88
2024/01/08 00:08:07;;;;;;;13.23;11.93;;;;;;;;;;426109;23;770;-87
2024/01/08 00:08:18;;;;;;;13.30;11.90;;;;;;;;;;425236;23;1282;-86
2024/01/08 00:08:28;;;;;;;13.07;11.75;;;;;;;;;;425970;23;1322;-87
2024/01/08 00:08:39;;;;;;;13.43;12.10;;;;;;;;;;428058;23;1279;-87
2024/01/08 00:08:50;;;;;;;13.70;12.40;;;;;;;;;;423808;23;1280;-86
2024/01/08 00:09:00;;;;;;;13.73;12.43;;;;;;;;;;426115;23;908;-86
2024/01/08 00:09:11;;;;;;;13.53;12.20;;;;;;;;;;427984;23;1172;-87
2024/01/08 00:09:21;;;;;;;13.05;11.75;;;;;;;;;;427677;23;841;-87
2024/01/08 00:09:32;;;;;;;13.07;11.67;;;;;;;;;;423921;23;1501;-87
2024/01/08 00:09:42;;;;;;;13.05;11.68;;;;;;;;;;427971;23;1255;-87
2024/01/08 00:09:52;;;;;;;13.33;11.57;;;;;;;;;;426002;23;1171;-87
2024/01/08 00:10:03;;;;;;;13.40;12.00;;;;;;;;;;426046;23;1259;-87
2024/01/08 00:10:14;;;;;;;13.38;11.98;;;;;;;;;;429868;23;906;-87
2024/01/08 00:10:25;;;;;;;13.48;12.10;;;;;;;;;;432276;22;801;-87
2024/01/08 00:10:37;;;;;;;13.17;11.87;;;;;;;;;;428008;23;1274;-86
2024/01/08 00:10:47;;;;;;;13.40;12.00;;;;;;;;;;428080;23;818;-87
2024/01/08 00:10:58;;;;;;;13.63;12.32;;;;;;;;;;428203;23;837;-87
2024/01/08 00:11:08;;;;;;;13.90;12.50;;;;;;;;;;428168;23;845;-87
2024/01/08 00:11:19;;;;;;;13.98;12.57;;;;;;;;;;423593;23;826;-86
2024/01/08 00:11:29;;;;;;;14.00;12.60;;;;;;;;;;423984;23;1196;-88
2024/01/08 00:11:40;;;;;;;13.88;12.48;;;;;;;;;;427939;23;1276;-87
2024/01/08 00:11:51;;;;;;;13.68;12.27;;;;;;;;;;425789;23;1298;-86
2024/01/08 00:12:01;;;;;;;13.33;12.03;;;;;;;;;;426022;23;1197;-86
2024/01/08 00:12:12;;;;;;;13.57;12.27;;;;;;;;;;427878;23;1205;-87
2024/01/08 00:12:22;;;;;;;13.70;12.30;;;;;;;;;;427691;23;873;-87
2024/01/08 00:12:33;;;;;;;13.63;12.23;;;;;;;;;;426040;23;862;-88
2024/01/08 00:12:43;;;;;;;13.30;11.97;;;;;;;;;;426081;23;755;-88
2024/01/08 00:12:54;;;;;;;13.30;12.00;;;;;;;;;;428139;23;838;-87
2024/01/08 00:13:05;;;;;;;13.13;11.80;;;;;;;;;;423980;23;1224;-88
2024/01/08 00:13:15;;;;;;;12.90;11.60;;;;;;;;;;425423;23;1318;-86
2024/01/08 00:13:25;;;;;;;13.07;11.68;;;;;;;;;;428023;23;861;-87
2024/01/08 00:13:36;;;;;;;13.70;12.30;;;;;;;;;;426112;23;1291;-87
2024/01/08 00:13:46;;;;;;;13.75;12.35;;;;;;;;;;426065;23;1448;-87
2024/01/08 00:13:57;;;;;;;13.83;12.43;;;;;;;;;;426064;23;1159;-87
2024/01/08 00:14:07;;;;;;;13.75;12.38;;;;;;;;;;426011;23;1176;-87
2024/01/08 00:14:18;;;;;;;13.90;12.50;;;;;;;;;;429936;23;809;-87
2024/01/08 00:14:28;;;;;;;13.77;12.38;;;;;;;;;;428252;23;1084;-87
2024/01/08 00:14:39;;;;;;;13.80;12.40;;;;;;;;;;424141;23;798;-86
2024/01/08 00:14:50;;;;;;;13.50;12.20;;;;;;;;;;426016;23;1319;-87
2024/01/08 00:15:00;;;;;;;13.45;12.15;;;;;;;;;;428225;23;1207;-87
2024/01/08 00:15:11;;;;;;;13.57;12.27;;;;;;;;;;428294;23;900;-87
2024/01/08 00:15:21;;;;;;;13.93;12.52;;;;;;;;;;423664;23;1321;-86
2024/01/08 00:15:32;;;;;;;14.10;12.70;;;;;;;;;;426003;23;1225;-86
2024/01/08 00:15:42;;;;;;;14.15;12.75;;;;;;;;;;425514;23;1286;-85
2024/01/08 00:15:53;;;;;;;14.40;12.97;;;;;;;;;;423429;23;1311;-87
2024/01/08 00:16:03;;;;;;;14.65;13.15;;;;;;;;;;425542;23;850;-87
2024/01/08 00:16:14;;;;;;;14.75;13.15;;;;;;;;;;423666;23;1336;-87
2024/01/08 00:16:24;;;;;;;14.27;12.77;;;;;;;;;;425559;23;1263;-86
2024/01/08 00:16:35;;;;;;;14.02;12.48;;;;;;;;;;426057;23;790;-87
2024/01/08 00:16:45;;;;;;;14.37;12.50;;;;;;;;;;425885;23;1413;-87
2024/01/08 00:16:56;;;;;;;15.45;12.73;;;;;;;;;;431787;22;1222;-87
2024/01/08 00:17:06;;;;;;;14.43;12.53;;;;;;;;;;427982;23;1143;-87
2024/01/08 00:17:17;;;;;;;14.05;12.40;;;;;;;;;;425711;23;1198;-87
2024/01/08 00:17:28;;;;;;;13.70;12.27;;;;;;;;;;428247;23;1012;-86
2024/01/08 00:17:38;;;;;;;13.60;12.20;;;;;;;;;;426280;23;882;-87
2024/01/08 00:17:49;;;;;;;13.40;12.00;;;;;;;;;;426118;23;877;-87
2024/01/08 00:18:00;;;;;;;13.17;11.87;;;;;;;;;;423622;23;1287;-86
2024/01/08 00:18:10;;;;;;;13.77;12.40;;;;;;;;;;425942;23;1375;-87
2024/01/08 00:18:22;;;;;;;13.93;12.52;;;;;;;;;;425546;23;872;-87
2024/01/08 00:18:33;;;;;;;14.27;12.88;;;;;;;;;;425957;23;866;-87
2024/01/08 00:18:43;;;;;;;14.30;12.80;;;;;;;;;;423845;23;1265;-86
2024/01/08 00:18:54;;;;;;;14.07;12.57;;;;;;;;;;426169;23;805;-88
2024/01/08 00:19:05;;;;;;;14.43;12.85;;;;;;;;;;424160;23;814;-87
2024/01/08 00:19:16;;;;;;;13.97;12.57;;;;;;;;;;423875;23;1184;-87
2024/01/08 00:19:26;;;;;;;14.30;12.85;;;;;;;;;;423582;23;1435;-87
2024/01/08 00:19:37;;;;;;;14.40;12.73;;;;;;;;;;424204;23;778;-87
2024/01/08 00:19:48;;;;;;;14.52;12.88;;;;;;;;;;426002;23;881;-86
2024/01/08 00:19:58;;;;;;;14.80;13.27;;;;;;;;;;428293;23;1159;-87
2024/01/08 00:20:09;;;;;;;14.67;13.17;;;;;;;;;;426234;23;817;-87
2024/01/08 00:20:19;;;;;;;14.18;12.70;;;;;;;;;;425956;23;1275;-87
2024/01/08 00:20:30;;;;;;;13.98;12.57;;;;;;;;;;424189;23;1335;-87
2024/01/08 00:20:41;;;;;;;14.43;12.93;;;;;;;;;;426200;23;1175;-87
2024/01/08 00:20:52;;;;;;;15.45;13.45;;;;;;;;;;426207;23;865;-86
2024/01/08 00:21:02;;;;;;;15.02;13.25;;;;;;;;;;428334;23;1195;-87
2024/01/08 00:21:13;;;;;;;14.70;13.20;;;;;;;;;;426328;23;798;-87
2024/01/08 00:21:23;;;;;;;14.47;13.07;;;;;;;;;;423672;23;1133;-87
2024/01/08 00:21:34;;;;;;;14.80;13.30;;;;;;;;;;424331;23;795;-87
2024/01/08 00:21:44;;;;;;;14.90;13.40;;;;;;;;;;424094;23;1264;-87
2024/01/08 00:21:55;;;;;;;15.17;13.57;;;;;;;;;;426177;23;904;-88
2024/01/08 00:22:05;;;;;;;15.07;13.57;;;;;;;;;;426135;23;1286;-87
2024/01/08 00:22:16;;;;;;;15.25;13.60;;;;;;;;;;425954;23;1190;-86
2024/01/08 00:22:26;;;;;;;15.67;13.60;;;;;;;;;;423706;23;826;-86
2024/01/08 00:22:37;;;;;;;16.38;14.05;;;;;;;;;;423161;23;1283;-86
2024/01/08 00:22:48;;;;;;;15.88;14.07;;;;;;;;;;423553;23;1323;-87
2024/01/08 00:22:59;;;;;;;15.33;13.73;;;;;;;;;;425941;23;1197;-86
2024/01/08 00:23:09;;;;;;;14.95;13.35;;;;;;;;;;427620;23;1120;-87
2024/01/08 00:23:20;;;;;;;14.80;13.20;;;;;;;;;;425858;23;1161;-86
2024/01/08 00:23:33;;;;;;;15.10;13.50;;;;;;;;;;424393;23;814;-87
2024/01/08 00:23:43;;;;;;;15.35;13.85;;;;;;;;;;426195;23;1852;-86
2024/01/08 00:23:54;;;;;;;15.45;13.95;;;;;;;;;;426027;23;1259;-87
2024/01/08 00:24:05;;;;;;;15.23;13.70;;;;;;;;;;424289;23;822;-86
2024/01/08 00:24:15;;;;;;;15.50;13.57;;;;;;;;;;424189;23;1330;-87
2024/01/08 00:24:26;;;;;;;15.60;13.60;;;;;;;;;;425963;23;1948;-87
2024/01/08 00:24:36;;;;;;;15.82;13.65;;;;;;;;;;426416;23;786;-86
2024/01/08 00:24:47;;;;;;;15.00;13.50;;;;;;;;;;424168;23;1213;-86
2024/01/08 00:24:57;;;;;;;14.88;13.32;;;;;;;;;;424022;23;1287;-87
2024/01/08 00:25:08;;;;;;;15.03;13.43;;;;;;;;;;424248;23;787;-87
2024/01/08 00:25:21;;;;;;;14.88;13.38;;;;;;;;;;424073;23;1324;-87
2024/01/08 00:25:32;;;;;;;14.95;13.45;;;;;;;;;;426172;23;893;-87
2024/01/08 00:25:42;;;;;;;15.25;13.70;;;;;;;;;;426363;23;763;-87
2024/01/08 00:25:53;;;;;;;15.13;13.63;;;;;;;;;;423896;23;1279;-88
2024/01/08 00:26:04;;;;;;;15.30;13.47;;;;;;;;;;428096;23;1261;-87
2024/01/08 00:26:14;;;;;;;14.38;12.88;;;;;;;;;;423976;23;1195;-87
2024/01/08 00:26:24;;;;;;;14.27;12.77;;;;;;;;;;427898;23;1192;-86
2024/01/08 00:26:35;;;;;;;14.52;13.10;;;;;;;;;;428447;23;743;-87
2024/01/08 00:26:45;;;;;;;15.33;13.73;;;;;;;;;;426363;23;846;-86
2024/01/08 00:26:56;;;;;;;15.73;14.13;;;;;;;;;;423999;23;1343;-87
2024/01/08 00:27:06;;;;;;;15.50;13.90;;;;;;;;;;426030;23;1388;-87
2024/01/08 00:27:17;;;;;;;15.27;13.68;;;;;;;;;;424219;23;1280;-87
2024/01/08 00:27:27;;;;;;;15.07;13.43;;;;;;;;;;428092;23;802;-87
2024/01/08 00:27:38;;;;;;;15.00;13.40;;;;;;;;;;428364;23;1501;-87
2024/01/08 00:27:49;;;;;;;15.33;13.73;;;;;;;;;;425846;23;1299;-85
2024/01/08 00:28:00;;;;;;;15.05;13.45;;;;;;;;;;426001;23;1595;-86
2024/01/08 00:28:11;;;;;;;15.13;13.52;;;;;;;;;;428074;23;1329;-87
2024/01/08 00:28:22;;;;;;;14.73;13.23;;;;;;;;;;426056;23;853;-88
2024/01/08 00:28:32;;;;;;;14.93;13.43;;;;;;;;;;424062;23;1279;-86
2024/01/08 00:28:43;;;;;;;14.88;13.38;;;;;;;;;;424223;23;802;-87
2024/01/08 00:28:53;;;;;;;14.63;13.13;;;;;;;;;;424005;23;1366;-87
2024/01/08 00:29:04;;;;;;;14.37;12.87;;;;;;;;;;426121;23;1265;-87
2024/01/08 00:29:14;;;;;;;14.60;12.70;;;;;;;;;;424168;23;1216;-87
2024/01/08 00:29:25;;;;;;;15.27;13.03;;;;;;;;;;427856;23;1199;-86
2024/01/08 00:29:35;;;;;;;15.00;13.02;;;;;;;;;;426285;23;1223;-87
2024/01/08 00:29:46;;;;;;;14.70;13.13;;;;;;;;;;426142;23;1178;-87
2024/01/08 00:29:56;;;;;;;15.10;13.40;;;;;;;;;;424164;23;795;-87
2024/01/08 00:30:07;;;;;;;15.73;13.43;;;;;;;;;;423887;23;1267;-87
2024/01/08 00:30:18;;;;;;;16.25;12.85;;;;;;;;;;426206;23;808;-86
2024/01/08 00:30:28;;;;;;;15.43;12.77;;;;;;;;;;427632;23;1287;-86
2024/01/08 00:30:39;;;;;;;14.87;12.97;;;;;;;;;;423958;23;1203;-87
2024/01/08 00:30:49;;;;;;;15.05;13.45;;;;;;;;;;426243;23;896;-88
2024/01/08 00:31:02;;;;;;;14.60;13.10;;;;;;;;;;426230;23;913;-87
2024/01/08 00:31:13;;;;;;;15.10;13.50;;;;;;;;;;424144;23;1854;-87
2024/01/08 00:31:23;;;;;;;15.05;13.50;;;;;;;;;;425924;23;759;-86
2024/01/08 00:31:33;;;;;;;15.43;13.20;;;;;;;;;;426237;23;1171;-87
2024/01/08 00:31:44;;;;;;;15.65;13.35;;;;;;;;;;424140;23;1311;-86
2024/01/08 00:31:54;;;;;;;15.50;13.50;;;;;;;;;;424108;23;1207;-87
2024/01/08 00:32:05;;;;;;;15.45;13.73;;;;;;;;;;426022;23;1375;-87
2024/01/08 00:32:16;;;;;;;15.90;13.83;;;;;;;;;;426092;23;1421;-87
2024/01/08 00:32:26;;;;;;;16.08;13.70;;;;;;;;;;425725;23;1246;-86
2024/01/08 00:32:36;;;;;;;15.00;12.80;;;;;;;;;;424165;23;1472;-86
2024/01/08 00:32:47;;;;;;;14.50;12.90;;;;;;;;;;426163;23;1262;-87
2024/01/08 00:32:57;;;;;;;14.60;13.07;;;;;;;;;;426255;23;846;-87
2024/01/08 00:33:09;;;;;;;14.75;13.30;;;;;;;;;;426118;23;1499;-87
2024/01/08 00:33:20;;;;;;;14.60;13.18;;;;;;;;;;423781;23;1424;-87
2024/01/08 00:33:31;;;;;;;14.10;12.70;;;;;;;;;;423813;23;889;-87
2024/01/08 00:33:41;;;;;;;14.07;12.68;;;;;;;;;;428215;23;1306;-87
2024/01/08 00:33:53;;;;;;;13.90;12.50;;;;;;;;;;430215;23;1255;-86
2024/01/08 00:34:04;;;;;;;14.23;12.73;;;;;;;;;;426035;23;1227;-88
2024/01/08 00:34:14;;;;;;;14.23;12.82;;;;;;;;;;426005;23;1216;-87
2024/01/08 00:34:27;;;;;;;14.23;12.90;;;;;;;;;;423795;23;1244;-87
2024/01/08 00:34:40;;;;;;;14.86;13.36;;;;;;;;;;424171;23;1339;-87
2024/01/08 00:34:50;;;;;;;14.98;13.48;;;;;;;;;;424147;23;929;-87
2024/01/08 00:35:01;;;;;;;14.75;13.25;;;;;;;;;;426070;23;1196;-86
2024/01/08 00:35:11;;;;;;;14.17;12.73;;;;;;;;;;426225;23;850;-87
2024/01/08 00:35:22;;;;;;;14.10;12.60;;;;;;;;;;426184;23;850;-86
2024/01/08 00:35:32;;;;;;;13.68;12.23;;;;;;;;;;426058;23;830;-87
2024/01/08 00:35:43;;;;;;;13.87;12.47;;;;;;;;;;426346;23;842;-87
2024/01/08 00:35:53;;;;;;;14.13;12.73;;;;;;;;;;424181;23;834;-87
2024/01/08 00:36:04;;;;;;;14.53;13.07;;;;;;;;;;424031;23;795;-87
2024/01/08 00:36:15;;;;;;;14.38;12.85;;;;;;;;;;424327;23;854;-87
2024/01/08 00:36:25;;;;;;;14.75;12.55;;;;;;;;;;423742;23;1177;-86
2024/01/08 00:36:36;;;;;;;15.23;12.37;;;;;;;;;;428263;23;1243;-87
2024/01/08 00:36:46;;;;;;;14.45;12.13;;;;;;;;;;424149;23;1369;-87
2024/01/08 00:36:57;;;;;;;14.77;12.50;;;;;;;;;;424106;23;771;-88
2024/01/08 00:37:07;;;;;;;14.32;12.75;;;;;;;;;;426139;23;1516;-86
2024/01/08 00:37:18;;;;;;;14.33;12.80;;;;;;;;;;428489;23;905;-87
2024/01/08 00:37:28;;;;;;;14.48;12.98;;;;;;;;;;425963;23;1284;-87
2024/01/08 00:37:40;;;;;;;14.93;13.33;;;;;;;;;;426183;23;1426;-86
2024/01/08 00:37:51;;;;;;;15.38;13.80;;;;;;;;;;425921;23;889;-86
2024/01/08 00:38:01;;;;;;;15.07;13.57;;;;;;;;;;426045;23;901;-86
2024/01/08 00:38:12;;;;;;;15.13;13.63;;;;;;;;;;424213;23;767;-87
2024/01/08 00:38:22;;;;;;;14.93;13.43;;;;;;;;;;428195;23;1183;-87
2024/01/08 00:38:33;;;;;;;14.48;13.02;;;;;;;;;;426130;23;818;-87
2024/01/08 00:38:43;;;;;;;14.23;12.73;;;;;;;;;;424142;23;1197;-86
2024/01/08 00:38:54;;;;;;;14.43;12.90;;;;;;;;;;428256;23;880;-87
2024/01/08 00:39:05;;;;;;;15.00;13.38;;;;;;;;;;429861;23;1360;-87
2024/01/08 00:39:15;;;;;;;14.93;13.32;;;;;;;;;;430287;23;1183;-87
2024/01/08 00:39:27;;;;;;;14.03;12.53;;;;;;;;;;425977;23;759;-87
2024/01/08 00:39:37;;;;;;;14.40;12.68;;;;;;;;;;426237;23;1338;-86
2024/01/08 00:39:48;;;;;;;14.80;12.80;;;;;;;;;;428268;23;1254;-86
2024/01/08 00:39:58;;;;;;;14.97;13.33;;;;;;;;;;432591;22;825;-88
2024/01/08 00:40:09;;;;;;;14.85;13.32;;;;;;;;;;430389;23;770;-86
2024/01/08 00:40:20;;;;;;;14.85;13.30;;;;;;;;;;426027;23;1486;-87
2024/01/08 00:40:30;;;;;;;14.70;13.20;;;;;;;;;;425962;23;1240;-88
2024/01/08 00:40:41;;;;;;;14.77;13.27;;;;;;;;;;426378;23;826;-87
2024/01/08 00:40:52;;;;;;;15.00;13.50;;;;;;;;;;426279;23;826;-87
2024/01/08 00:41:04;;;;;;;15.18;13.65;;;;;;;;;;426105;23;1215;-88
2024/01/08 00:41:15;;;;;;;15.10;13.50;;;;;;;;;;426149;23;1209;-87
2024/01/08 00:41:26;;;;;;;15.25;13.65;;;;;;;;;;426158;23;1271;-87
2024/01/08 00:41:37;;;;;;;15.07;13.48;;;;;;;;;;426231;23;1410;-88
2024/01/08 00:41:47;;;;;;;15.02;13.52;;;;;;;;;;424364;23;870;-87
2024/01/08 00:41:58;;;;;;;14.87;13.37;;;;;;;;;;424067;23;1326;-87
2024/01/08 00:42:09;;;;;;;15.13;13.63;;;;;;;;;;426061;23;1291;-87
2024/01/08 00:42:19;;;;;;;15.52;14.02;;;;;;;;;;428141;23;873;-86
2024/01/08 00:42:30;;;;;;;15.83;14.33;;;;;;;;;;426018;23;815;-87
2024/01/08 00:42:40;;;;;;;15.40;13.90;;;;;;;;;;424138;23;1488;-87
2024/01/08 00:42:51;;;;;;;15.10;13.60;;;;;;;;;;423873;23;1192;-87
2024/01/08 00:43:01;;;;;;;14.70;13.20;;;;;;;;;;424013;23;1200;-87
2024/01/08 00:43:12;;;;;;;14.90;13.40;;;;;;;;;;426148;23;1299;-87
2024/01/08 00:43:22;;;;;;;15.27;13.73;;;;;;;;;;423890;23;827;-86
2024/01/08 00:43:32;;;;;;;15.70;14.00;;;;;;;;;;425838;23;874;-86
2024/01/08 00:43:43;;;;;;;15.52;13.77;;;;;;;;;;428121;23;1209;-86
2024/01/08 00:43:53;;;;;;;15.60;14.00;;;;;;;;;;425980;23;1266;-86
2024/01/08 00:44:04;;;;;;;16.10;14.50;;;;;;;;;;426177;23;834;-86
2024/01/08 00:44:14;;;;;;;16.23;14.63;;;;;;;;;;426092;23;1301;-87
2024/01/08 00:44:25;;;;;;;15.63;13.97;;;;;;;;;;425928;23;1901;-87
2024/01/08 00:44:35;;;;;;;16.00;13.80;;;;;;;;;;425900;23;1267;-87
2024/01/08 00:44:46;;;;;;;16.17;13.80;;;;;;;;;;426086;23;1314;-87
2024/01/08 00:44:56;;;;;;;16.20;14.07;;;;;;;;;;426011;23;1167;-87
2024/01/08 00:45:07;;;;;;;15.48;13.88;;;;;;;;;;428252;23;1207;-87
2024/01/08 00:45:18;;;;;;;15.45;13.85;;;;;;;;;;427759;23;861;-87
2024/01/08 00:45:29;;;;;;;15.47;13.87;;;;;;;;;;423783;23;1263;-88
2024/01/08 00:45:40;;;;;;;15.85;14.15;;;;;;;;;;424147;23;1399;-88
2024/01/08 00:45:50;;;;;;;15.60;13.90;;;;;;;;;;424172;23;960;-89
2024/01/08 00:46:01;;;;;;;15.60;13.93;;;;;;;;;;424100;23;1215;-88
2024/01/08 00:46:11;;;;;;;15.30;13.80;;;;;;;;;;424294;23;835;-87
2024/01/08 00:46:22;;;;;;;16.03;14.43;;;;;;;;;;423974;23;1274;-88
2024/01/08 00:46:32;;;;;;;15.93;14.32;;;;;;;;;;426112;23;850;-87
2024/01/08 00:46:44;;;;;;;16.10;14.40;;;;;;;;;;426221;23;1275;-87
2024/01/08 00:46:54;;;;;;;15.70;13.98;;;;;;;;;;426044;23;1297;-88
2024/01/08 00:47:04;;;;;;;15.77;13.90;;;;;;;;;;426241;23;1277;-88
2024/01/08 00:47:15;;;;;;;15.93;14.10;;;;;;;;;;426246;23;1412;-87
2024/01/08 00:47:25;;;;;;;15.57;13.90;;;;;;;;;;428078;23;1302;-89
2024/01/08 00:47:36;;;;;;;15.33;13.80;;;;;;;;;;428049;23;1340;-88
2024/01/08 00:47:46;;;;;;;15.38;13.82;;;;;;;;;;428378;23;794;-88
2024/01/08 00:47:57;;;;;;;15.80;14.03;;;;;;;;;;428254;23;758;-88
2024/01/08 00:48:07;;;;;;;15.93;13.75;;;;;;;;;;424160;23;1212;-88
2024/01/08 00:48:18;;;;;;;15.33;13.57;;;;;;;;;;428319;23;857;-89
2024/01/08 00:48:28;;;;;;;15.18;13.57;;;;;;;;;;426169;23;1175;-87
2024/01/08 00:48:38;;;;;;;15.90;14.30;;;;;;;;;;425930;23;1277;-88
2024/01/08 00:48:49;;;;;;;15.38;13.82;;;;;;;;;;426045;23;1233;-88
2024/01/08 00:48:59;;;;;;;14.87;13.37;;;;;;;;;;426236;23;1371;-87
2024/01/08 00:49:10;;;;;;;14.90;13.40;;;;;;;;;;428286;23;871;-88
2024/01/08 00:49:20;;;;;;;15.20;13.60;;;;;;;;;;426164;23;798;-88
2024/01/08 00:49:31;;;;;;;15.53;13.87;;;;;;;;;;425833;23;1172;-89
2024/01/08 00:49:41;;;;;;;15.67;13.97;;;;;;;;;;424114;23;1430;-89
2024/01/08 00:49:52;;;;;;;16.27;14.55;;;;;;;;;;424180;23;807;-90
2024/01/08 00:50:04;;;;;;;16.57;14.87;;;;;;;;;;424264;23;755;-88
2024/01/08 00:50:14;;;;;;;16.35;14.65;;;;;;;;;;426207;23;1239;-86
2024/01/08 00:50:26;;;;;;;15.85;14.25;;;;;;;;;;428218;23;826;-87
2024/01/08 00:50:37;;;;;;;15.70;14.00;;;;;;;;;;423958;23;849;-86
2024/01/08 00:50:48;;;;;;;15.00;13.27;;;;;;;;;;428282;23;869;-86
2024/01/08 00:50:58;;;;;;;14.77;13.18;;;;;;;;;;426204;23;842;-86
2024/01/08 00:51:09;;;;;;;15.18;13.57;;;;;;;;;;426101;23;1180;-86
2024/01/08 00:51:20;;;;;;;15.65;13.90;;;;;;;;;;423820;23;1244;-86
2024/01/08 00:51:33;;;;;;;15.82;14.10;;;;;;;;;;423859;23;1345;-87
2024/01/08 00:51:44;;;;;;;16.25;14.20;;;;;;;;;;424268;23;926;-86
2024/01/08 00:51:55;;;;;;;15.90;14.10;;;;;;;;;;424160;23;810;-86
2024/01/08 00:52:05;;;;;;;15.65;13.82;;;;;;;;;;424200;23;933;-86
2024/01/08 00:52:16;;;;;;;14.67;13.17;;;;;;;;;;424134;23;1280;-87
2024/01/08 00:52:26;;;;;;;14.68;13.10;;;;;;;;;;428168;23;1295;-87
2024/01/08 00:52:37;;;;;;;14.90;13.40;;;;;;;;;;425729;23;961;-86
2024/01/08 00:52:47;;;;;;;15.40;13.80;;;;;;;;;;425891;23;830;-86
2024/01/08 00:52:58;;;;;;;15.50;13.90;;;;;;;;;;426083;23;1318;-86
2024/01/08 00:53:09;;;;;;;15.55;13.90;;;;;;;;;;426235;23;1191;-86
2024/01/08 00:53:19;;;;;;;15.32;13.73;;;;;;;;;;426108;23;1394;-87
2024/01/08 00:53:30;;;;;;;15.83;14.20;;;;;;;;;;428341;23;838;-87
2024/01/08 00:53:43;;;;;;;15.10;13.50;;;;;;;;;;426050;23;854;-87
2024/01/08 00:53:53;;;;;;;16.10;13.48;;;;;;;;;;426019;23;1310;-86
2024/01/08 00:54:04;;;;;;;15.40;13.30;;;;;;;;;;426420;23;818;-87
2024/01/08 00:54:15;;;;;;;14.97;13.50;;;;;;;;;;428254;23;1192;-87
2024/01/08 00:54:25;;;;;;;15.00;13.50;;;;;;;;;;426182;23;830;-86
2024/01/08 00:54:35;;;;;;;14.97;13.40;;;;;;;;;;423814;23;1245;-86
2024/01/08 00:54:46;;;;;;;14.80;13.30;;;;;;;;;;426186;23;1299;-87
2024/01/08 00:55:02;;;;;;;14.63;13.23;;;;;;;;;;423875;23;1138;-86
2024/01/08 00:55:12;;;;;;;15.02;13.57;;;;;;;;;;426181;23;1380;-86
2024/01/08 00:55:23;;;;;;;15.35;13.75;;;;;;;;;;426058;23;1255;-86
2024/01/08 00:55:33;;;;;;;15.75;13.95;;;;;;;;;;425831;23;1180;-87
2024/01/08 00:55:44;;;;;;;15.97;14.20;;;;;;;;;;426389;23;893;-87
2024/01/08 00:55:54;;;;;;;16.50;14.57;;;;;;;;;;425998;23;1124;-87
2024/01/08 00:56:05;;;;;;;16.23;14.52;;;;;;;;;;428277;23;1180;-88
2024/01/08 00:56:15;;;;;;;15.70;14.00;;;;;;;;;;425837;23;807;-87
2024/01/08 00:56:26;;;;;;;15.63;14.00;;;;;;;;;;423874;23;1251;-86
2024/01/08 00:56:37;;;;;;;16.15;14.45;;;;;;;;;;425897;23;814;-87
2024/01/08 00:56:47;;;;;;;15.70;14.00;;;;;;;;;;426086;23;1182;-87
2024/01/08 00:56:58;;;;;;;15.50;13.90;;;;;;;;;;428062;23;1205;-87
2024/01/08 00:57:08;;;;;;;14.93;13.33;;;;;;;;;;426154;23;1319;-87
2024/01/08 00:57:19;;;;;;;15.32;13.75;;;;;;;;;;424054;23;886;-87
2024/01/08 00:57:29;;;;;;;14.85;13.35;;;;;;;;;;428230;23;1288;-86
2024/01/08 00:57:40;;;;;;;14.77;13.27;;;;;;;;;;425973;23;849;-87
2024/01/08 00:57:50;;;;;;;15.25;13.65;;;;;;;;;;425961;23;1247;-87
2024/01/08 00:58:01;;;;;;;16.00;14.30;;;;;;;;;;428331;23;806;-86
2024/01/08 00:58:11;;;;;;;16.08;14.38;;;;;;;;;;426299;23;778;-86
2024/01/08 00:58:22;;;;;;;15.87;14.27;;;;;;;;;;423603;23;1296;-86
2024/01/08 00:58:32;;;;;;;15.45;13.90;;;;;;;;;;426139;23;1332;-88
2024/01/08 00:58:44;;;;;;;14.85;13.45;;;;;;;;;;423920;23;1519;-87
2024/01/08 00:58:56;;;;;;;14.68;13.20;;;;;;;;;;424120;23;822;-87
2024/01/08 00:59:06;;;;;;;14.10;12.68;;;;;;;;;;426415;23;830;-87
2024/01/08 00:59:16;;;;;;;14.17;12.77;;;;;;;;;;428404;23;861;-87
2024/01/08 00:59:27;;;;;;;14.38;12.98;;;;;;;;;;428250;23;1513;-87
2024/01/08 00:59:37;;;;;;;15.23;13.73;;;;;;;;;;427886;23;1163;-87
2024/01/08 00:59:48;;;;;;;15.48;13.88;;;;;;;;;;424133;23;1223;-87
2024/01/08 00:59:58;;;;;;;15.43;13.83;;;;;;;;;;424244;23;775;-87
2024/01/08 01:00:09;;;;;;;14.88;13.32;;;;;;;;;;425625;23;1279;-87
2024/01/08 01:00:20;;;;;;;14.60;13.10;;;;;;;;;;424053;23;1294;-87
2024/01/08 01:00:31;;;;;;;14.67;13.20;;;;;;;;;;424097;23;1320;-87
2024/01/08 01:00:41;;;;;;;15.07;13.57;;;;;;;;;;423914;23;779;-87
2024/01/08 01:00:52;;;;;;;15.93;14.32;;;;;;;;;;425962;23;1208;-87
2024/01/08 01:01:03;;;;;;;16.10;14.40;;;;;;;;;;426441;23;767;-86
2024/01/08 01:01:14;;;;;;;16.10;14.35;;;;;;;;;;424150;23;1357;-86
2024/01/08 01:01:26;;;;;;;15.48;13.88;;;;;;;;;;426093;23;1392;-87
2024/01/08 01:01:37;;;;;;;15.02;13.46;;;;;;;;;;425842;23;897;-87
2024/01/08 01:01:47;;;;;;;15.32;13.75;;;;;;;;;;423861;23;1330;-87
2024/01/08 01:01:58;;;;;;;15.13;13.53;;;;;;;;;;424019;23;1157;-87
2024/01/08 01:02:09;;;;;;;15.30;13.70;;;;;;;;;;424294;23;862;-88
2024/01/08 01:02:19;;;;;;;14.65;13.13;;;;;;;;;;423964;23;1268;-87
2024/01/08 01:02:30;;;;;;;15.07;13.03;;;;;;;;;;426344;23;853;-87
2024/01/08 01:02:40;;;;;;;15.15;12.70;;;;;;;;;;425953;23;822;-86
2024/01/08 01:02:54;;;;;;;15.50;13.43;;;;;;;;;;428060;23;1305;-87
2024/01/08 01:03:04;;;;;;;15.25;13.65;;;;;;;;;;426102;23;2030;-87
2024/01/08 01:03:15;;;;;;;14.90;13.37;;;;;;;;;;426184;23;1268;-87
2024/01/08 01:03:25;;;;;;;15.15;13.55;;;;;;;;;;426071;23;1213;-87
2024/01/08 01:03:35;;;;;;;15.10;13.50;;;;;;;;;;425900;23;1323;-87
2024/01/08 01:03:46;;;;;;;15.15;13.55;;;;;;;;;;426054;23;907;-87
2024/01/08 01:03:56;;;;;;;14.83;13.33;;;;;;;;;;428232;23;1350;-86
2024/01/08 01:04:07;;;;;;;14.93;13.40;;;;;;;;;;424180;23;870;-87
2024/01/08 01:04:17;;;;;;;14.90;13.37;;;;;;;;;;428330;23;829;-87
2024/01/08 01:04:28;;;;;;;14.52;12.90;;;;;;;;;;425931;23;2038;-87
2024/01/08 01:04:38;;;;;;;14.70;12.97;;;;;;;;;;425880;23;1155;-87